Goliah — WDD5908 — position and weather

sailwx.info

Track history (hours):
 
Tides and Currents Weather Stations Pressure Air Temp Water Temp Dewpoint Dewpoint Depression Visibility Wind Speed Wind Dir Waves Ship Positions

Goliah

Owner: Crowley Marine Services, Seattle, WA. More information available from US FCC via Universal Licensing System and Coast Guard Vessel Documentation Center.

Last reported at 2016-Feb-07 21:30 UTC. Time now 2016-Feb-08 12:34 UTC.
Position N 33°44' W 118°17'.

Length 33 m; draft 4.8 m.

Type: Tug. MMSI: 366898250.

Date/timePositionNaut miles runAvg speedWind from/ knotsBaromVisibWave heightAir tempDewpointWater temp
2016-Feb-07 21:30N 33°44' W 118°17'0 0.0
2016-Feb-07 20:32N 33°44' W 118°17'2 0.9
2016-Feb-07 18:10N 33°43' W 118°15'3 2.1
2016-Feb-07 16:33N 33°41' W 118°12'6 1.6
2016-Feb-07 13:03N 33°45' W 118°16'0 0.0
2016-Feb-07 03:10N 33°45' W 118°16'2 2.6
2016-Feb-07 02:33N 33°46' W 118°14'2 1.8
2016-Feb-07 01:32N 33°45' W 118°16'3 0.1
2016-Feb-06 04:29N 33°45' W 118°13'1 1.2
2016-Feb-06 03:33N 33°46' W 118°13'0 0.0
2016-Feb-06 02:33N 33°46' W 118°13'2 2.4
2016-Feb-06 01:32N 33°44' W 118°12'0 0.0
2016-Feb-05 14:06N 33°44' W 118°12'1 1.1
2016-Feb-05 13:33N 33°45' W 118°12'1 0.4
2016-Feb-05 11:33N 33°46' W 118°13'1 0.6
2016-Feb-05 10:34N 33°46' W 118°13'3 0.6
2016-Feb-05 05:23N 33°44' W 118°17'0 0.0
2016-Feb-05 04:32N 33°44' W 118°17'1 0.5
2016-Feb-05 03:32N 33°45' W 118°16'0 0.2
2016-Feb-05 02:33N 33°45' W 118°16'1 0.3
2016-Feb-05 00:06N 33°44' W 118°17'0 0.0
2016-Feb-04 23:31N 33°44' W 118°17'0 0.0
2016-Feb-04 22:33N 33°44' W 118°17'0 0.0
2016-Feb-04 21:31N 33°44' W 118°17'0 0.0
2016-Feb-04 18:14N 33°44' W 118°17'0 0.0
2016-Feb-04 17:31N 33°44' W 118°17'3 1.2
2016-Feb-04 15:10N 33°44' W 118°13'2 3.0
2016-Feb-04 14:33N 33°45' W 118°13'3 2.5
2016-Feb-04 13:18N 33°43' W 118°16'3 3.4
2016-Feb-04 12:32N 33°46' W 118°16'2 1.4
2016-Feb-04 11:24N 33°44' W 118°17'0 0.0
2016-Feb-04 10:32N 33°44' W 118°17'2 0.2
2016-Feb-04 03:11N 33°43' W 118°16'3 0.7
2016-Feb-03 22:33N 33°44' W 118°12'1 0.6
2016-Feb-03 21:33N 33°44' W 118°13'3 1.4
2016-Feb-03 19:27N 33°44' W 118°17'0 0.0
2016-Feb-03 18:31N 33°44' W 118°17'0 0.0
2016-Feb-03 17:32N 33°44' W 118°17'0 0.0
2016-Feb-03 15:29N 33°44' W 118°17'3 1.4
2016-Feb-03 13:18N 33°45' W 118°13'1 0.9
2016-Feb-03 12:30N 33°45' W 118°13'0 0.5
2016-Feb-03 11:33N 33°45' W 118°13'15 1.4
2016-Feb-03 00:33N 33°54' W 118°27'0 0.1
2016-Feb-02 23:33N 33°54' W 118°27'1 1.4
2016-Feb-02 22:33N 33°53' W 118°27'1 0.7
2016-Feb-02 21:21N 33°52' W 118°27'14 2.5
2016-Feb-02 15:33N 33°44' W 118°13'3 0.3
2016-Feb-02 03:07N 33°45' W 118°17'0 0.2
2016-Feb-02 02:32N 33°45' W 118°17'3 2.9
2016-Feb-02 01:29N 33°43' W 118°14'2 1.9
2016-Feb-02 00:34N 33°45' W 118°13'1 0.6
2016-Feb-01 23:34N 33°45' W 118°13'1 0.7
2016-Feb-01 22:33N 33°45' W 118°13'0 0.2
2016-Feb-01 21:20N 33°45' W 118°13'0 0.0
2016-Feb-01 20:29N 33°45' W 118°13'0 0.0
2016-Feb-01 19:34N 33°45' W 118°13'0 0.0
2016-Feb-01 18:33N 33°45' W 118°13'3 0.4
2016-Feb-01 12:08N 33°45' W 118°17'0 0.1
2016-Feb-01 10:16N 33°44' W 118°17'0 0.0
2016-Feb-01 07:31N 33°44' W 118°17'0 0.0
2016-Feb-01 06:31N 33°44' W 118°17'0 0.0
2016-Feb-01 05:31N 33°44' W 118°17'0 0.0
2016-Feb-01 04:33N 33°44' W 118°17'4 1.5
2016-Feb-01 02:03N 33°44' W 118°12'1 0.8
2016-Feb-01 01:24N 33°44' W 118°12'1 1.3
2016-Feb-01 00:30N 33°43' W 118°13'1 0.4
2016-Jan-31 22:05N 33°44' W 118°13'1 1.9
2016-Jan-31 21:33N 33°45' W 118°13'0 0.2
2016-Jan-31 19:17N 33°45' W 118°13'0 0.1
2016-Jan-31 18:33N 33°45' W 118°13'0 0.0
2016-Jan-31 17:33N 33°45' W 118°13'2 1.1
2016-Jan-31 15:28N 33°44' W 118°11'2 1.6
2016-Jan-31 14:16N 33°45' W 118°12'0 0.3
2016-Jan-31 13:33N 33°45' W 118°12'3 0.2
2016-Jan-30 22:32N 33°46' W 118°16'0 0.1
2016-Jan-30 15:16N 33°45' W 118°16'1 0.1
2016-Jan-30 07:17N 33°44' W 118°17'0 0.0
2016-Jan-30 06:31N 33°44' W 118°17'0 0.0
2016-Jan-30 05:34N 33°44' W 118°17'0 0.0
2016-Jan-30 04:33N 33°44' W 118°17'0 0.0
2016-Jan-30 03:33N 33°44' W 118°17'0 0.1
2016-Jan-30 02:15N 33°44' W 118°17'1 2.0
2016-Jan-30 01:33N 33°46' W 118°17'0 0.4
2016-Jan-30 00:33N 33°45' W 118°17'1 0.5
2016-Jan-29 22:30N 33°44' W 118°17'0 0.0
2016-Jan-29 20:32N 33°44' W 118°17'3 3.2
2016-Jan-29 19:33N 33°45' W 118°13'1 1.4
2016-Jan-29 18:31N 33°44' W 118°13'1 1.0
2016-Jan-29 17:33N 33°43' W 118°13'3 0.9
2016-Jan-29 14:08N 33°44' W 118°17'0 0.0
2016-Jan-29 13:33N 33°44' W 118°17'1 0.9
2016-Jan-29 12:33N 33°45' W 118°17'1 0.9
2016-Jan-29 11:33N 33°44' W 118°17'0 0.0
2016-Jan-29 10:33N 33°44' W 118°17'0 0.0
2016-Jan-29 09:33N 33°44' W 118°17'0 0.0
2016-Jan-29 08:33N 33°44' W 118°17'0 0.0
2016-Jan-29 07:33N 33°44' W 118°17'1 1.0
2016-Jan-29 06:33N 33°45' W 118°16'4 3.7
2016-Jan-29 05:34N 33°42' W 118°14'1 1.4
2016-Jan-29 04:33N 33°43' W 118°15'2 1.4
2016-Jan-29 03:16N 33°44' W 118°17'0 0.0
2016-Jan-29 02:33N 33°44' W 118°17'1 1.1
2016-Jan-29 01:33N 33°43' W 118°16'1 1.1
2016-Jan-29 00:33N 33°44' W 118°17'1 0.7
2016-Jan-28 23:33N 33°45' W 118°16'1 0.8
2016-Jan-28 22:33N 33°44' W 118°17'0 0.2
2016-Jan-28 21:33N 33°44' W 118°17'  
Track history (hours):
 
Tides and Currents Weather Stations Pressure Air Temp Water Temp Dewpoint Dewpoint Depression Visibility Wind Speed Wind Dir Waves Ship Positions

Goliah

Owner: Crowley Marine Services, Seattle, WA. More information available from US FCC via Universal Licensing System and Coast Guard Vessel Documentation Center.

Last reported at 2016-Feb-07 21:30 UTC. Time now 2016-Feb-08 12:34 UTC.
Position N 33°44' W 118°17'.

Length 33 m; draft 4.8 m.

Type: Tug. MMSI: 366898250.

Date/timePositionNaut miles runAvg speedWind from/ knotsBaromVisibWave heightAir tempDewpointWater temp
2016-Feb-07 21:30N 33°44' W 118°17'0 0.0
2016-Feb-07 20:32N 33°44' W 118°17'2 0.9
2016-Feb-07 18:10N 33°43' W 118°15'3 2.1
2016-Feb-07 16:33N 33°41' W 118°12'6 1.6
2016-Feb-07 13:03N 33°45' W 118°16'0 0.0
2016-Feb-07 03:10N 33°45' W 118°16'2 2.6
2016-Feb-07 02:33N 33°46' W 118°14'2 1.8
2016-Feb-07 01:32N 33°45' W 118°16'3 0.1
2016-Feb-06 04:29N 33°45' W 118°13'1 1.2
2016-Feb-06 03:33N 33°46' W 118°13'0 0.0
2016-Feb-06 02:33N 33°46' W 118°13'2 2.4
2016-Feb-06 01:32N 33°44' W 118°12'0 0.0
2016-Feb-05 14:06N 33°44' W 118°12'1 1.1
2016-Feb-05 13:33N 33°45' W 118°12'1 0.4
2016-Feb-05 11:33N 33°46' W 118°13'1 0.6
2016-Feb-05 10:34N 33°46' W 118°13'3 0.6
2016-Feb-05 05:23N 33°44' W 118°17'0 0.0
2016-Feb-05 04:32N 33°44' W 118°17'1 0.5
2016-Feb-05 03:32N 33°45' W 118°16'0 0.2
2016-Feb-05 02:33N 33°45' W 118°16'1 0.3
2016-Feb-05 00:06N 33°44' W 118°17'0 0.0
2016-Feb-04 23:31N 33°44' W 118°17'0 0.0
2016-Feb-04 22:33N 33°44' W 118°17'0 0.0
2016-Feb-04 21:31N 33°44' W 118°17'0 0.0
2016-Feb-04 18:14N 33°44' W 118°17'0 0.0
2016-Feb-04 17:31N 33°44' W 118°17'3 1.2
2016-Feb-04 15:10N 33°44' W 118°13'2 3.0
2016-Feb-04 14:33N 33°45' W 118°13'3 2.5
2016-Feb-04 13:18N 33°43' W 118°16'3 3.4
2016-Feb-04 12:32N 33°46' W 118°16'2 1.4
2016-Feb-04 11:24N 33°44' W 118°17'0 0.0
2016-Feb-04 10:32N 33°44' W 118°17'2 0.2
2016-Feb-04 03:11N 33°43' W 118°16'3 0.7
2016-Feb-03 22:33N 33°44' W 118°12'1 0.6
2016-Feb-03 21:33N 33°44' W 118°13'3 1.4
2016-Feb-03 19:27N 33°44' W 118°17'0 0.0
2016-Feb-03 18:31N 33°44' W 118°17'0 0.0
2016-Feb-03 17:32N 33°44' W 118°17'0 0.0
2016-Feb-03 15:29N 33°44' W 118°17'3 1.4
2016-Feb-03 13:18N 33°45' W 118°13'1 0.9
2016-Feb-03 12:30N 33°45' W 118°13'0 0.5
2016-Feb-03 11:33N 33°45' W 118°13'15 1.4
2016-Feb-03 00:33N 33°54' W 118°27'0 0.1
2016-Feb-02 23:33N 33°54' W 118°27'1 1.4
2016-Feb-02 22:33N 33°53' W 118°27'1 0.7
2016-Feb-02 21:21N 33°52' W 118°27'14 2.5
2016-Feb-02 15:33N 33°44' W 118°13'3 0.3
2016-Feb-02 03:07N 33°45' W 118°17'0 0.2
2016-Feb-02 02:32N 33°45' W 118°17'3 2.9
2016-Feb-02 01:29N 33°43' W 118°14'2 1.9
2016-Feb-02 00:34N 33°45' W 118°13'1 0.6
2016-Feb-01 23:34N 33°45' W 118°13'1 0.7
2016-Feb-01 22:33N 33°45' W 118°13'0 0.2
2016-Feb-01 21:20N 33°45' W 118°13'0 0.0
2016-Feb-01 20:29N 33°45' W 118°13'0 0.0
2016-Feb-01 19:34N 33°45' W 118°13'0 0.0
2016-Feb-01 18:33N 33°45' W 118°13'3 0.4
2016-Feb-01 12:08N 33°45' W 118°17'0 0.1
2016-Feb-01 10:16N 33°44' W 118°17'0 0.0
2016-Feb-01 07:31N 33°44' W 118°17'0 0.0
2016-Feb-01 06:31N 33°44' W 118°17'0 0.0
2016-Feb-01 05:31N 33°44' W 118°17'0 0.0
2016-Feb-01 04:33N 33°44' W 118°17'4 1.5
2016-Feb-01 02:03N 33°44' W 118°12'1 0.8
2016-Feb-01 01:24N 33°44' W 118°12'1 1.3
2016-Feb-01 00:30N 33°43' W 118°13'1 0.4
2016-Jan-31 22:05N 33°44' W 118°13'1 1.9
2016-Jan-31 21:33N 33°45' W 118°13'0 0.2
2016-Jan-31 19:17N 33°45' W 118°13'0 0.1
2016-Jan-31 18:33N 33°45' W 118°13'0 0.0
2016-Jan-31 17:33N 33°45' W 118°13'2 1.1
2016-Jan-31 15:28N 33°44' W 118°11'2 1.6
2016-Jan-31 14:16N 33°45' W 118°12'0 0.3
2016-Jan-31 13:33N 33°45' W 118°12'3 0.2
2016-Jan-30 22:32N 33°46' W 118°16'0 0.1
2016-Jan-30 15:16N 33°45' W 118°16'1 0.1
2016-Jan-30 07:17N 33°44' W 118°17'0 0.0
2016-Jan-30 06:31N 33°44' W 118°17'0 0.0
2016-Jan-30 05:34N 33°44' W 118°17'0 0.0
2016-Jan-30 04:33N 33°44' W 118°17'0 0.0
2016-Jan-30 03:33N 33°44' W 118°17'0 0.1
2016-Jan-30 02:15N 33°44' W 118°17'1 2.0
2016-Jan-30 01:33N 33°46' W 118°17'0 0.4
2016-Jan-30 00:33N 33°45' W 118°17'1 0.5
2016-Jan-29 22:30N 33°44' W 118°17'0 0.0
2016-Jan-29 20:32N 33°44' W 118°17'3 3.2
2016-Jan-29 19:33N 33°45' W 118°13'1 1.4
2016-Jan-29 18:31N 33°44' W 118°13'1 1.0
2016-Jan-29 17:33N 33°43' W 118°13'3 0.9
2016-Jan-29 14:08N 33°44' W 118°17'0 0.0
2016-Jan-29 13:33N 33°44' W 118°17'1 0.9
2016-Jan-29 12:33N 33°45' W 118°17'1 0.9
2016-Jan-29 11:33N 33°44' W 118°17'0 0.0
2016-Jan-29 10:33N 33°44' W 118°17'0 0.0
2016-Jan-29 09:33N 33°44' W 118°17'0 0.0
2016-Jan-29 08:33N 33°44' W 118°17'0 0.0
2016-Jan-29 07:33N 33°44' W 118°17'1 1.0
2016-Jan-29 06:33N 33°45' W 118°16'4 3.7
2016-Jan-29 05:34N 33°42' W 118°14'1 1.4
2016-Jan-29 04:33N 33°43' W 118°15'2 1.4
2016-Jan-29 03:16N 33°44' W 118°17'0 0.0
2016-Jan-29 02:33N 33°44' W 118°17'1 1.1
2016-Jan-29 01:33N 33°43' W 118°16'1 1.1
2016-Jan-29 00:33N 33°44' W 118°17'1 0.7
2016-Jan-28 23:33N 33°45' W 118°16'1 0.8
2016-Jan-28 22:33N 33°44' W 118°17'0 0.2
2016-Jan-28 21:33N 33°44' W 118°17'  

Dump ship's entire track history